Time;durP1;ratioP1;P1;durP2;ratioP2;P2;SDS_P1;SDS_P2;PMS_P1;PMS_P2;Temp;Humidity;BMP_temperature;BMP_pressure;BME280_temperature;BME280_humidity;BME280_pressure;Samples;Min_cycle;Max_cycle;Signal;HPM_P1;HPM_P2
2022/05/30 00:02:02;;;;;;;11.97;7.73;;;7.60;99.90;;;;;;10273980;28;20315;-81
2022/05/30 00:07:06;;;;;;;9.30;7.23;;;7.50;99.90;;;;;;10257765;28;20238;-80
2022/05/30 00:12:09;;;;;;;13.33;8.20;;;7.50;99.90;;;;;;10275147;28;20233;-80
2022/05/30 00:17:12;;;;;;;11.07;7.70;;;7.50;99.90;;;;;;10288631;28;20225;-80
2022/05/30 00:22:15;;;;;;;12.60;7.40;;;7.40;99.90;;;;;;10247570;28;20227;-80
2022/05/30 00:27:18;;;;;;;11.03;8.33;;;7.40;99.90;;;;;;10227018;28;20234;-81
2022/05/30 00:32:21;;;;;;;10.70;7.97;;;7.40;99.90;;;;;;10270727;28;20297;-81
2022/05/30 00:37:25;;;;;;;11.80;7.70;;;7.50;99.90;;;;;;10241930;28;20239;-81
2022/05/30 00:42:28;;;;;;;12.40;7.93;;;7.50;99.90;;;;;;10261010;28;20285;-80
2022/05/30 00:47:30;;;;;;;11.83;7.77;;;7.50;99.90;;;;;;10260155;28;20242;-81
2022/05/30 00:52:38;;;;;;;11.93;7.97;;;7.60;99.90;;;;;;10268712;28;20257;-81
2022/05/30 00:57:42;;;;;;;11.37;7.63;;;7.50;99.90;;;;;;10260102;28;20748;-80
2022/05/30 01:06:30;;;;;;;8.63;7.13;;;7.40;99.90;;;;;;10247503;28;20755;-80
2022/05/30 01:08:10;;;;;;;11.80;7.40;;;7.40;99.90;;;;;;10215669;28;20280;-81
2022/05/30 01:13:13;;;;;;;17.30;7.43;;;7.30;99.90;;;;;;10268595;28;20256;-80
2022/05/30 01:18:29;;;;;;;13.27;8.07;;;7.10;99.90;;;;;;10251316;28;20238;-80
2022/05/30 01:23:52;;;;;;;11.17;8.23;;;7.00;99.90;;;;;;10236941;28;20670;-80
2022/05/30 01:29:27;;;;;;;8.83;7.27;;;7.00;99.90;;;;;;10238352;28;20245;-80
2022/05/30 01:34:30;;;;;;;10.70;7.63;;;6.80;99.90;;;;;;10238806;28;20717;-80
2022/05/30 01:39:32;;;;;;;9.23;7.27;;;6.70;99.90;;;;;;10268209;28;20624;-80
2022/05/30 01:44:35;;;;;;;10.83;7.90;;;6.70;99.90;;;;;;10257692;28;20234;-80
2022/05/30 01:49:37;;;;;;;9.87;7.23;;;6.70;99.90;;;;;;10263381;28;20242;-80
2022/05/30 01:54:41;;;;;;;10.70;8.50;;;6.70;99.90;;;;;;10213586;29;20258;-80
2022/05/30 02:00:10;;;;;;;13.87;9.67;;;6.80;99.90;;;;;;10256478;28;20232;-81
2022/05/30 02:05:19;;;;;;;16.40;9.50;;;7.20;99.90;;;;;;10282658;28;20237;-81
2022/05/30 02:10:22;;;;;;;13.47;8.73;;;7.30;99.90;;;;;;10234954;28;20266;-80
2022/05/30 02:15:26;;;;;;;10.43;7.83;;;7.50;99.90;;;;;;10237651;28;20263;-81
2022/05/30 02:20:37;;;;;;;9.27;7.53;;;7.30;99.90;;;;;;10235500;28;20242;-81
2022/05/30 02:25:40;;;;;;;12.20;7.93;;;7.30;99.90;;;;;;10281548;28;20625;-81
2022/05/30 02:30:43;;;;;;;13.20;9.57;;;7.30;99.90;;;;;;10259947;28;20603;-81
2022/05/30 02:41:07;;;;;;;10.03;7.67;;;7.40;99.90;;;;;;10287668;28;20238;-81
2022/05/30 02:46:24;;;;;;;9.27;7.83;;;7.40;99.90;;;;;;10253367;28;20278;-81
2022/05/30 02:51:27;;;;;;;12.83;9.63;;;7.40;99.90;;;;;;10280551;28;20225;-80
2022/05/30 02:56:29;;;;;;;11.23;8.50;;;7.40;99.90;;;;;;10255056;28;20262;-81
2022/05/30 03:01:34;;;;;;;11.13;8.67;;;7.30;99.90;;;;;;10257467;28;20285;-80
2022/05/30 03:06:38;;;;;;;15.37;9.27;;;7.20;99.90;;;;;;10264608;28;20313;-81
2022/05/30 03:11:40;;;;;;;10.13;7.10;;;7.20;99.90;;;;;;10253142;28;20234;-80
2022/05/30 03:16:43;;;;;;;11.50;8.30;;;7.30;99.90;;;;;;10251112;28;20304;-81
2022/05/30 03:21:49;;;;;;;10.40;8.67;;;7.40;99.90;;;;;;10233541;28;20252;-80
2022/05/30 03:26:52;;;;;;;13.20;9.83;;;7.50;99.90;;;;;;10248096;28;20649;-81
2022/05/30 03:31:57;;;;;;;10.93;8.67;;;7.50;99.90;;;;;;10249577;28;20289;-81
2022/05/30 03:36:59;;;;;;;12.33;8.97;;;7.60;99.90;;;;;;10251599;28;20261;-81
2022/05/30 03:42:24;;;;;;;12.93;9.70;;;7.70;99.90;;;;;;10264204;28;20717;-81
2022/05/30 03:47:40;;;;;;;12.93;9.73;;;7.80;99.90;;;;;;10267850;28;20249;-80
2022/05/30 03:52:44;;;;;;;15.23;10.50;;;7.90;99.90;;;;;;10249169;28;20337;-81
2022/05/30 03:57:51;;;;;;;15.60;11.13;;;7.90;99.90;;;;;;10250631;28;20254;-81
2022/05/30 04:02:53;;;;;;;25.17;16.27;;;8.00;99.90;;;;;;10248595;28;20698;-81
2022/05/30 04:07:57;;;;;;;21.60;12.83;;;8.20;99.90;;;;;;10256206;28;20572;-80
2022/05/30 04:13:20;;;;;;;13.57;10.50;;;8.30;99.90;;;;;;10290375;28;20257;-81
2022/05/30 04:18:44;;;;;;;12.93;9.87;;;8.50;99.90;;;;;;10253374;28;20631;-80
2022/05/30 04:23:46;;;;;;;10.27;8.80;;;8.60;99.90;;;;;;10260238;28;20746;-81
2022/05/30 04:28:53;;;;;;;10.17;9.13;;;8.60;99.90;;;;;;10247787;28;20214;-80
2022/05/30 04:34:24;;;;;;;11.73;9.00;;;8.80;99.90;;;;;;10230894;29;20738;-81
2022/05/30 04:39:27;;;;;;;10.20;8.90;;;8.90;99.90;;;;;;10263174;28;20211;-80
2022/05/30 04:44:49;;;;;;;11.60;9.60;;;9.10;99.90;;;;;;10287540;28;20230;-81
2022/05/30 04:49:58;;;;;;;13.63;9.60;;;9.30;99.90;;;;;;10287145;28;20270;-81
2022/05/30 04:55:00;;;;;;;15.93;10.97;;;9.50;99.90;;;;;;10246169;29;20817;-81
2022/05/30 05:00:11;;;;;;;14.60;10.60;;;9.70;99.90;;;;;;10245857;29;20246;-81
2022/05/30 05:05:16;;;;;;;12.57;10.17;;;9.80;99.90;;;;;;10247236;28;20303;-81
2022/05/30 05:10:59;;;;;;;15.80;10.53;;;10.10;99.90;;;;;;10245244;29;20248;-81
2022/05/30 05:16:23;;;;;;;12.20;9.40;;;10.20;99.90;;;;;;10226433;28;20271;-81
2022/05/30 05:21:32;;;;;;;10.10;8.43;;;10.50;99.90;;;;;;10249654;28;20233;-81
2022/05/30 05:26:35;;;;;;;13.73;6.50;;;10.80;99.90;;;;;;10229924;28;20249;-81
2022/05/30 05:31:49;;;;;;;10.10;6.90;;;11.10;99.90;;;;;;10228341;28;20283;-81
2022/05/30 05:36:51;;;;;;;10.40;7.27;;;12.60;99.90;;;;;;10248498;28;20647;-81
2022/05/30 05:41:54;;;;;;;9.63;8.07;;;12.20;99.90;;;;;;10247356;29;20233;-80
2022/05/30 05:46:57;;;;;;;11.07;6.80;;;11.90;99.90;;;;;;10244692;29;20283;-81
2022/05/30 05:52:05;;;;;;;8.33;6.93;;;11.90;99.90;;;;;;10199561;29;20264;-80
2022/05/30 05:57:09;;;;;;;13.67;6.97;;;11.90;99.90;;;;;;10250711;28;20267;-80
2022/05/30 06:02:19;;;;;;;8.97;6.93;;;11.90;99.90;;;;;;10243988;28;20236;-81
2022/05/30 06:07:21;;;;;;;11.90;7.27;;;11.90;99.90;;;;;;10253638;29;20271;-81
2022/05/30 06:12:45;;;;;;;8.90;6.37;;;12.10;99.90;;;;;;10252173;29;20233;-80
2022/05/30 06:17:48;;;;;;;7.17;6.20;;;12.40;99.90;;;;;;10248612;29;20316;-80
2022/05/30 06:22:52;;;;;;;15.47;6.47;;;12.60;99.90;;;;;;10266532;28;20226;-81
2022/05/30 06:28:17;;;;;;;10.63;6.73;;;12.60;99.90;;;;;;10168055;29;20761;-80
2022/05/30 06:33:33;;;;;;;10.03;6.83;;;12.50;99.90;;;;;;10153304;29;20286;-80
2022/05/30 06:38:41;;;;;;;8.37;5.67;;;12.60;99.90;;;;;;10154093;29;20223;-80
2022/05/30 06:44:07;;;;;;;7.70;6.23;;;12.70;99.90;;;;;;10044154;29;20300;-80
2022/05/30 06:49:50;;;;;;;9.47;7.10;;;12.80;99.90;;;;;;10034196;29;20719;-80
2022/05/30 06:54:57;;;;;;;7.57;6.17;;;13.10;99.90;;;;;;10047656;29;20764;-80
2022/05/30 07:00:00;;;;;;;8.33;6.93;;;;;;;;;;10048763;29;20258;-81
2022/05/30 07:05:05;;;;;;;8.50;7.07;;;13.60;99.90;;;;;;10097732;29;20272;-80
2022/05/30 07:10:27;;;;;;;13.27;5.70;;;13.70;99.90;;;;;;10117538;29;20320;-80
2022/05/30 07:15:48;;;;;;;6.23;5.67;;;14.80;99.90;;;;;;10088439;29;20252;-80
2022/05/30 07:21:05;;;;;;;5.73;5.00;;;;;;;;;;10167783;29;20238;-81
2022/05/30 07:26:28;;;;;;;5.97;5.37;;;16.60;99.90;;;;;;10217755;29;20730;-80
2022/05/30 07:31:49;;;;;;;9.03;5.40;;;16.50;99.90;;;;;;10256621;28;20245;-83
2022/05/30 07:37:10;;;;;;;5.43;4.90;;;16.10;99.90;;;;;;10239354;28;20296;-80
2022/05/30 07:42:33;;;;;;;8.87;6.23;;;16.40;99.90;;;;;;10191779;29;20239;-81
2022/05/30 07:47:53;;;;;;;10.30;5.80;;;16.40;99.90;;;;;;10212245;28;20745;-80
2022/05/30 07:53:24;;;;;;;7.90;6.67;;;16.60;99.90;;;;;;10237173;29;20289;-80
2022/05/30 07:58:36;;;;;;;11.03;5.67;;;17.20;99.90;;;;;;10249201;29;20713;-79
2022/05/30 08:03:40;;;;;;;13.03;6.07;;;17.20;99.90;;;;;;10222747;29;20270;-81
2022/05/30 08:09:08;;;;;;;7.00;6.33;;;17.30;99.90;;;;;;10201835;29;20300;-80
2022/05/30 08:14:21;;;;;;;6.87;6.17;;;17.70;99.60;;;;;;10247723;28;20249;-80
2022/05/30 08:19:24;;;;;;;7.13;6.53;;;17.50;99.00;;;;;;10232558;29;20230;-80
2022/05/30 08:24:48;;;;;;;5.10;4.60;;;18.00;97.60;;;;;;10249017;29;20213;-80
2022/05/30 08:29:52;;;;;;;6.27;4.87;;;18.10;97.90;;;;;;10245047;28;20293;-80
2022/05/30 08:34:58;;;;;;;7.00;5.87;;;17.40;98.60;;;;;;10247454;29;20341;-80
2022/05/30 08:45:30;;;;;;;7.43;6.53;;;17.90;98.20;;;;;;10120081;29;20644;-84
2022/05/30 08:51:03;;;;;;;7.97;7.23;;;18.40;95.20;;;;;;10127649;29;20302;-84
2022/05/30 08:56:34;;;;;;;8.07;4.43;;;18.20;96.00;;;;;;10126213;29;20716;-80
2022/05/30 09:02:09;;;;;;;3.83;2.73;;;17.90;94.00;;;;;;10135061;29;20307;-81
2022/05/30 09:07:19;;;;;;;6.70;3.20;;;17.50;93.80;;;;;;10129257;29;20231;-82
2022/05/30 09:12:35;;;;;;;8.33;7.53;;;17.60;92.60;;;;;;10126979;29;20240;-81
2022/05/30 09:18:09;;;;;;;8.03;7.27;;;18.40;93.70;;;;;;10122782;29;20331;-82
2022/05/30 09:23:13;;;;;;;6.67;3.13;;;17.90;94.40;;;;;;10127500;29;20251;-80
2022/05/30 09:28:16;;;;;;;3.93;3.50;;;18.00;91.80;;;;;;10110164;29;20276;-81
2022/05/30 09:33:40;;;;;;;7.07;4.93;;;18.10;89.20;;;;;;10117431;29;20251;-81
2022/05/30 09:39:02;;;;;;;3.13;1.90;;;18.20;91.40;;;;;;10131388;29;20263;-81
2022/05/30 09:44:17;;;;;;;5.63;5.03;;;18.20;87.90;;;;;;10125222;29;20296;-81
2022/05/30 09:49:41;;;;;;;2.93;1.63;;;18.60;90.00;;;;;;10126497;29;20247;-82
2022/05/30 09:54:44;;;;;;;4.90;1.73;;;17.60;87.60;;;;;;10126709;29;20243;-82
2022/05/30 09:59:49;;;;;;;2.37;2.17;;;18.20;81.90;;;;;;10124093;29;20231;-82
2022/05/30 10:05:01;;;;;;;7.83;2.00;;;17.60;81.70;;;;;;10124716;29;20752;-80
2022/05/30 10:10:18;;;;;;;7.83;7.03;;;17.80;83.80;;;;;;10121833;29;20240;-81
2022/05/30 10:15:35;;;;;;;8.90;7.93;;;18.70;90.40;;;;;;10126667;29;20319;-80
2022/05/30 10:21:11;;;;;;;4.50;1.93;;;19.10;89.70;;;;;;10125501;29;20641;-81
2022/05/30 10:33:21;;;;;;;8.57;7.80;;;19.50;85.50;;;;;;10126747;29;20757;-81
2022/05/30 10:38:40;;;;;;;9.23;8.43;;;19.50;85.00;;;;;;10120896;29;20264;-81
2022/05/30 10:43:46;;;;;;;8.30;7.60;;;19.20;86.30;;;;;;10129295;29;20266;-80
2022/05/30 10:48:58;;;;;;;7.37;6.77;;;19.00;86.00;;;;;;10129287;29;20651;-80
2022/05/30 10:54:20;;;;;;;7.37;4.60;;;18.70;87.20;;;;;;10132113;29;20264;-81
2022/05/30 10:59:37;;;;;;;7.83;5.00;;;18.50;83.60;;;;;;10132195;29;20642;-82
2022/05/30 11:04:57;;;;;;;9.47;8.57;;;18.40;82.70;;;;;;10131436;29;20279;-81
2022/05/30 11:10:23;;;;;;;9.07;8.13;;;18.10;88.60;;;;;;10134715;29;20224;-80
2022/05/30 11:15:34;;;;;;;6.03;5.53;;;18.50;87.60;;;;;;10132982;29;20258;-80
2022/05/30 11:21:21;;;;;;;10.00;4.93;;;18.30;79.50;;;;;;10134026;29;20685;-79
2022/05/30 11:26:50;;;;;;;7.07;4.70;;;17.80;82.00;;;;;;10095571;29;20237;-79
2022/05/30 11:32:10;;;;;;;4.17;3.63;;;17.60;83.50;;;;;;10131693;29;20317;-79
2022/05/30 11:37:15;;;;;;;8.00;7.27;;;18.00;73.90;;;;;;10133010;29;20251;-79
2022/05/30 11:42:47;;;;;;;1.60;1.50;;;18.00;85.20;;;;;;10146847;29;20262;-80
2022/05/30 11:48:14;;;;;;;7.97;7.17;;;18.70;71.00;;;;;;10132451;29;20267;-78
2022/05/30 11:53:22;;;;;;;2.73;1.07;;;19.00;74.70;;;;;;10132843;29;20303;-79
2022/05/30 11:58:48;;;;;;;6.83;6.23;;;18.40;67.30;;;;;;10130028;29;20251;-85
2022/05/30 12:04:18;;;;;;;3.97;3.13;;;19.10;78.80;;;;;;9995297;29;20290;-84
2022/05/30 12:09:56;;;;;;;7.37;6.67;;;18.80;79.80;;;;;;10009788;29;20756;-85
2022/05/30 12:15:08;;;;;;;9.20;8.40;;;18.90;81.30;;;;;;10100548;23;20267;-84
2022/05/30 12:25:56;;;;;;;6.80;6.20;;;19.30;74.70;;;;;;10164444;29;20243;-79
2022/05/30 12:31:04;;;;;;;58.77;10.00;;;19.60;78.20;;;;;;10167440;29;20286;-79
2022/05/30 12:36:09;;;;;;;8.70;7.87;;;19.60;77.30;;;;;;10164731;29;20247;-79
2022/05/30 12:41:16;;;;;;;9.17;8.37;;;19.60;77.50;;;;;;10169111;29;20228;-80
2022/05/30 12:46:25;;;;;;;11.03;9.30;;;19.50;78.20;;;;;;10167209;29;20282;-80
2022/05/30 12:51:39;;;;;;;9.30;8.40;;;19.50;79.60;;;;;;10168790;29;20314;-79
2022/05/30 12:56:43;;;;;;;4.33;3.93;;;19.60;79.30;;;;;;10168884;29;20692;-79
2022/05/30 13:01:48;;;;;;;7.97;6.70;;;19.60;77.00;;;;;;10169397;29;20211;-80
2022/05/30 13:06:57;;;;;;;5.33;3.27;;;19.40;72.60;;;;;;10167653;29;20306;-79
2022/05/30 13:12:17;;;;;;;3.70;2.43;;;19.30;69.90;;;;;;10167090;29;20242;-79
2022/05/30 13:17:19;;;;;;;3.40;1.30;;;18.50;75.90;;;;;;10168132;29;20275;-80
2022/05/30 13:22:41;;;;;;;3.83;3.47;;;18.40;66.30;;;;;;10165845;29;20274;-80
2022/05/30 13:27:46;;;;;;;8.43;6.97;;;18.30;71.30;;;;;;10162094;29;20287;-79
2022/05/30 13:32:50;;;;;;;6.77;2.43;;;18.40;79.50;;;;;;10166562;29;20258;-80
2022/05/30 13:38:04;;;;;;;5.07;3.43;;;18.30;72.60;;;;;;10168256;29;20259;-79
2022/05/30 13:43:09;;;;;;;2.60;2.40;;;18.00;74.50;;;;;;10168311;29;20296;-79
2022/05/30 13:48:33;;;;;;;2.80;1.80;;;17.60;74.60;;;;;;10107324;29;20242;-79
2022/05/30 13:53:42;;;;;;;3.27;1.87;;;18.00;75.60;;;;;;10128995;29;20247;-79
2022/05/30 13:58:49;;;;;;;6.60;5.90;;;17.80;77.00;;;;;;10127722;29;20267;-80
2022/05/30 14:04:02;;;;;;;7.03;6.43;;;18.30;78.40;;;;;;10126924;29;20298;-79
2022/05/30 14:09:07;;;;;;;8.40;7.60;;;18.60;75.00;;;;;;10127498;29;20239;-79
2022/05/30 14:14:12;;;;;;;3.57;2.37;;;17.80;80.60;;;;;;10127433;29;20296;-79
2022/05/30 14:19:37;;;;;;;5.90;5.40;;;17.50;76.70;;;;;;10134399;29;20260;-79
2022/05/30 14:24:55;;;;;;;5.40;4.90;;;17.60;79.90;;;;;;10134869;29;20641;-79
2022/05/30 14:30:00;;;;;;;5.17;4.70;;;18.00;81.60;;;;;;10136137;29;20246;-79
2022/05/30 14:35:11;;;;;;;9.13;8.30;;;18.00;79.10;;;;;;10134630;29;20244;-79
2022/05/30 14:40:21;;;;;;;8.83;8.03;;;18.40;80.80;;;;;;10135618;29;20260;-80
2022/05/30 14:45:28;;;;;;;8.63;7.83;;;18.60;79.60;;;;;;10134972;29;20240;-80
2022/05/30 14:50:54;;;;;;;2.20;1.83;;;18.70;79.80;;;;;;10133444;29;20299;-79
2022/05/30 14:56:01;;;;;;;3.80;1.90;;;17.70;77.80;;;;;;10128709;29;20315;-80
2022/05/30 15:01:04;;;;;;;7.07;6.47;;;17.80;78.30;;;;;;10134390;29;20295;-79
2022/05/30 15:06:09;;;;;;;7.73;7.00;;;18.30;80.10;;;;;;10134137;29;20303;-80
2022/05/30 15:11:24;;;;;;;8.40;7.60;;;18.30;79.80;;;;;;10133652;29;20648;-80
2022/05/30 15:16:27;;;;;;;3.60;2.80;;;18.30;80.10;;;;;;10134465;29;20271;-80
2022/05/30 15:21:33;;;;;;;2.27;1.03;;;18.20;73.30;;;;;;10132976;29;20280;-80
2022/05/30 15:26:35;;;;;;;1.33;1.00;;;17.80;73.20;;;;;;10132028;29;20299;-80
2022/05/30 15:31:40;;;;;;;1.73;1.20;;;18.00;71.10;;;;;;10134690;29;20247;-80
2022/05/30 15:36:44;;;;;;;5.17;1.60;;;17.90;71.50;;;;;;10132144;29;20259;-80
2022/05/30 15:41:54;;;;;;;4.87;1.63;;;18.00;70.80;;;;;;10134200;29;20235;-80
2022/05/30 15:46:57;;;;;;;2.90;1.03;;;17.60;73.20;;;;;;10129567;29;20693;-80
2022/05/30 15:52:06;;;;;;;5.53;2.00;;;17.80;68.70;;;;;;10132176;29;20248;-80
2022/05/30 15:57:18;;;;;;;2.07;1.13;;;18.50;72.50;;;;;;10132382;29;20248;-80
2022/05/30 16:02:23;;;;;;;2.00;1.80;;;18.10;67.50;;;;;;10131035;29;20585;-80
2022/05/30 16:07:29;;;;;;;0.97;0.87;;;17.70;71.70;;;;;;10132572;29;20300;-79
2022/05/30 16:12:45;;;;;;;3.37;0.60;;;17.10;67.70;;;;;;10132995;29;20318;-80
2022/05/30 16:17:48;;;;;;;1.83;0.80;;;17.60;68.60;;;;;;9790644;29;9999726;-80
2022/05/30 16:22:51;;;;;;;1.07;0.97;;;17.40;69.00;;;;;;10128031;29;20279;-80
2022/05/30 16:27:59;;;;;;;2.90;1.73;;;18.70;70.50;;;;;;10117685;29;20242;-79
2022/05/30 16:33:02;;;;;;;1.70;1.30;;;18.70;67.40;;;;;;10127096;29;20358;-80
2022/05/30 16:38:05;;;;;;;1.47;1.33;;;18.20;71.40;;;;;;10127546;29;20297;-80
2022/05/30 16:43:08;;;;;;;1.30;0.90;;;17.80;69.60;;;;;;10126486;29;20231;-80
2022/05/30 16:48:25;;;;;;;2.13;1.13;;;18.10;67.80;;;;;;10127137;29;20287;-80
2022/05/30 16:53:28;;;;;;;2.33;0.87;;;17.80;68.90;;;;;;10126231;29;20644;-80
2022/05/30 16:58:32;;;;;;;1.23;1.03;;;17.40;69.90;;;;;;10128671;29;20263;-80
2022/05/30 17:03:36;;;;;;;1.53;1.13;;;17.50;69.20;;;;;;10127698;29;20236;-79
2022/05/30 17:08:40;;;;;;;4.20;3.83;;;16.30;70.60;;;;;;10127176;29;20290;-80
2022/05/30 17:13:43;;;;;;;2.40;1.20;;;16.80;78.40;;;;;;10122806;29;20270;-79
2022/05/30 17:18:46;;;;;;;2.37;1.77;;;17.60;71.30;;;;;;10117610;29;20294;-79
2022/05/30 17:23:49;;;;;;;1.83;1.00;;;17.20;73.30;;;;;;10127674;29;20264;-80
2022/05/30 17:29:07;;;;;;;1.50;1.30;;;16.80;71.40;;;;;;10130512;29;20239;-80
2022/05/30 17:34:10;;;;;;;3.20;1.30;;;17.20;71.70;;;;;;10107042;29;20248;-80
2022/05/30 17:39:15;;;;;;;3.70;1.87;;;15.70;77.30;;;;;;10119477;29;20251;-80
2022/05/30 17:44:17;;;;;;;6.07;2.10;;;15.70;79.00;;;;;;10127555;29;20265;-79
2022/05/30 17:49:52;;;;;;;3.80;1.93;;;15.90;81.60;;;;;;10131142;29;20243;-79
2022/05/30 17:54:58;;;;;;;4.93;3.00;;;15.70;83.10;;;;;;10140289;29;20619;-78
2022/05/30 18:00:03;;;;;;;4.17;1.57;;;15.70;82.80;;;;;;10140759;29;20259;-79
2022/05/30 18:05:08;;;;;;;1.47;1.37;;;15.20;84.50;;;;;;10142686;29;20299;-79
2022/05/30 18:10:11;;;;;;;3.83;1.43;;;14.80;88.60;;;;;;10141945;29;20261;-78
2022/05/30 18:15:23;;;;;;;3.17;1.50;;;14.80;88.50;;;;;;10142247;29;20323;-78
2022/05/30 18:20:25;;;;;;;1.30;1.20;;;14.50;90.40;;;;;;10141710;29;20287;-79
2022/05/30 18:25:37;;;;;;;2.20;1.27;;;14.10;91.60;;;;;;10142213;29;20240;-79
2022/05/30 18:31:06;;;;;;;2.43;1.27;;;14.20;91.60;;;;;;10140844;29;20216;-78
2022/05/30 18:36:37;;;;;;;6.53;1.70;;;13.80;93.30;;;;;;10142541;29;20232;-78
2022/05/30 18:41:55;;;;;;;3.07;1.60;;;13.50;94.60;;;;;;10140994;29;20224;-83
2022/05/30 18:47:21;;;;;;;2.13;1.80;;;13.20;96.30;;;;;;10140497;29;20261;-81
2022/05/30 18:52:24;;;;;;;4.47;2.33;;;13.10;96.80;;;;;;10136683;29;20232;-80
2022/05/30 18:57:40;;;;;;;5.17;2.33;;;13.10;97.70;;;;;;10141814;29;20934;-81
2022/05/30 19:02:45;;;;;;;6.63;2.30;;;12.70;99.90;;;;;;10129438;29;20239;-80
2022/05/30 19:07:49;;;;;;;8.07;3.70;;;12.20;99.90;;;;;;10129357;29;20647;-80
2022/05/30 19:13:03;;;;;;;6.90;2.63;;;11.70;99.90;;;;;;10129002;29;20632;-80
2022/05/30 19:18:29;;;;;;;3.97;2.37;;;11.50;99.90;;;;;;10133917;29;20263;-80
2022/05/30 19:23:31;;;;;;;6.17;2.30;;;11.30;99.90;;;;;;10133882;29;20243;-81
2022/05/30 19:28:35;;;;;;;4.03;2.80;;;11.40;99.90;;;;;;10131782;29;20630;-81
2022/05/30 19:33:38;;;;;;;5.17;2.17;;;11.50;99.90;;;;;;10135568;29;20272;-82
2022/05/30 19:38:40;;;;;;;2.20;2.00;;;11.50;99.90;;;;;;10131731;29;20259;-81
2022/05/30 19:43:43;;;;;;;4.07;2.43;;;11.20;99.90;;;;;;10133715;29;20236;-80
2022/05/30 19:48:45;;;;;;;3.33;2.17;;;11.00;99.90;;;;;;10134991;29;20243;-81
2022/05/30 19:53:55;;;;;;;2.97;2.10;;;10.70;99.90;;;;;;10112575;29;20294;-80
2022/05/30 19:58:58;;;;;;;21.10;7.40;;;10.40;99.90;;;;;;10125910;29;20372;-83
2022/05/30 20:04:01;;;;;;;11.53;5.20;;;10.40;99.90;;;;;;10134463;29;20668;-83
2022/05/30 20:09:04;;;;;;;14.73;6.97;;;10.10;99.90;;;;;;10116970;29;20302;-80
2022/05/30 20:14:14;;;;;;;13.27;5.87;;;10.00;99.90;;;;;;10126395;29;20272;-80
2022/05/30 20:19:17;;;;;;;16.23;5.67;;;10.10;99.90;;;;;;10119922;29;20373;-79
2022/05/30 20:24:20;;;;;;;9.60;6.17;;;10.00;99.90;;;;;;10121953;29;20255;-80
2022/05/30 20:29:22;;;;;;;6.77;4.67;;;9.90;99.90;;;;;;10132213;29;20706;-80
2022/05/30 20:34:24;;;;;;;12.43;5.47;;;9.70;99.90;;;;;;10124552;29;20249;-80
2022/05/30 20:39:27;;;;;;;6.00;4.07;;;9.70;99.90;;;;;;10130977;29;20316;-80
2022/05/30 20:44:30;;;;;;;7.87;3.93;;;9.60;99.90;;;;;;10128994;29;20243;-80
2022/05/30 20:49:32;;;;;;;5.70;3.70;;;9.70;99.90;;;;;;10129854;29;20237;-80
2022/05/30 20:54:35;;;;;;;5.27;4.33;;;9.70;99.90;;;;;;10131161;29;20703;-81
2022/05/30 20:59:39;;;;;;;16.03;9.50;;;9.70;99.90;;;;;;10128144;29;20257;-82
2022/05/30 21:04:41;;;;;;;34.23;17.70;;;9.60;99.90;;;;;;10103288;29;20226;-80
2022/05/30 21:09:44;;;;;;;28.13;15.73;;;9.10;99.90;;;;;;10116120;29;20303;-80
2022/05/30 21:14:46;;;;;;;29.27;15.43;;;8.90;99.90;;;;;;10129534;29;20296;-80
2022/05/30 21:20:05;;;;;;;26.23;13.60;;;8.70;99.90;;;;;;10128726;29;20705;-81
2022/05/30 21:25:09;;;;;;;22.33;11.73;;;8.60;99.90;;;;;;10106064;29;20283;-80
2022/05/30 21:30:14;;;;;;;16.57;10.03;;;8.40;99.90;;;;;;10098920;29;20291;-81
2022/05/30 21:35:17;;;;;;;11.53;6.70;;;8.30;99.90;;;;;;10130103;29;20305;-80
2022/05/30 21:40:23;;;;;;;8.80;5.33;;;8.40;99.90;;;;;;10129081;29;20327;-80
2022/05/30 21:45:26;;;;;;;8.77;5.70;;;8.30;99.90;;;;;;10129024;29;20242;-80
2022/05/30 21:50:30;;;;;;;9.93;6.23;;;;;;;;;;10140252;29;20332;-79
2022/05/30 21:55:34;;;;;;;9.90;5.30;;;8.10;99.90;;;;;;10120861;29;20273;-80
2022/05/30 22:00:47;;;;;;;12.17;5.83;;;8.00;99.90;;;;;;10129371;29;20246;-79
2022/05/30 22:05:53;;;;;;;8.17;5.53;;;7.80;99.90;;;;;;10129312;29;20235;-79
2022/05/30 22:10:58;;;;;;;9.93;5.93;;;7.60;99.90;;;;;;10128214;29;20301;-80
2022/05/30 22:16:01;;;;;;;9.03;6.50;;;7.40;99.90;;;;;;10125348;29;20291;-80
2022/05/30 22:21:05;;;;;;;7.13;5.60;;;7.30;99.90;;;;;;10126045;29;20309;-81
2022/05/30 22:26:13;;;;;;;9.90;6.17;;;7.10;99.90;;;;;;10129069;29;20614;-80
2022/05/30 22:31:16;;;;;;;13.80;7.30;;;7.00;99.90;;;;;;10127544;29;20253;-79
2022/05/30 22:36:20;;;;;;;8.47;6.13;;;6.80;99.90;;;;;;10125606;29;20236;-79
2022/05/30 22:41:23;;;;;;;15.03;6.47;;;6.80;99.90;;;;;;10128060;29;20256;-80
2022/05/30 22:46:26;;;;;;;10.97;6.63;;;7.00;99.90;;;;;;10117822;29;20243;-80
2022/05/30 22:51:28;;;;;;;8.87;6.03;;;6.90;99.90;;;;;;10134470;29;20212;-80
2022/05/30 22:56:31;;;;;;;9.57;6.23;;;6.80;99.90;;;;;;10135731;29;20258;-81
2022/05/30 23:01:35;;;;;;;7.63;5.70;;;6.80;99.90;;;;;;10131455;29;20313;-80
2022/05/30 23:06:38;;;;;;;11.13;7.00;;;7.00;99.90;;;;;;10135136;29;20260;-80
2022/05/30 23:11:41;;;;;;;8.50;6.37;;;7.10;99.90;;;;;;10097981;29;20242;-80
2022/05/30 23:16:50;;;;;;;7.33;5.90;;;6.90;99.90;;;;;;10132927;29;20297;-80
2022/05/30 23:21:52;;;;;;;10.03;6.47;;;7.00;99.90;;;;;;10133846;29;20268;-80
2022/05/30 23:26:56;;;;;;;8.90;6.30;;;6.80;99.90;;;;;;10135424;29;20240;-80
2022/05/30 23:31:58;;;;;;;10.93;6.70;;;6.60;99.90;;;;;;10133116;29;20252;-80
2022/05/30 23:37:01;;;;;;;9.70;6.47;;;6.50;99.90;;;;;;10130767;29;20284;-80
2022/05/30 23:47:26;;;;;;;6.77;5.13;;;6.30;99.90;;;;;;10133281;29;20279;-80
2022/05/30 23:52:29;;;;;;;11.70;6.27;;;6.10;99.90;;;;;;10133688;29;20276;-81
2022/05/30 23:57:32;;;;;;;11.30;7.03;;;6.10;99.90;;;;;;10132741;29;20667;-80
